sensor_id;sensor_type;location;lat;lon;timestamp;P1;durP1;ratioP1;P2;durP2;ratioP2
25327;SDS011;13279;51.300;12.394;2022-08-05T03:15:30;4.90;;;2.80;;
25327;SDS011;13279;51.300;12.394;2022-08-05T03:17:57;11.23;;;3.27;;
25327;SDS011;13279;51.300;12.394;2022-08-05T03:20:24;11.03;;;3.60;;
25327;SDS011;13279;51.300;12.394;2022-08-05T03:22:52;9.03;;;3.20;;
25327;SDS011;13279;51.300;12.394;2022-08-05T03:25:22;6.90;;;3.37;;
25327;SDS011;13279;51.300;12.394;2022-08-05T03:27:50;4.20;;;2.80;;
25327;SDS011;13279;51.300;12.394;2022-08-05T03:30:17;5.93;;;3.50;;
25327;SDS011;13279;51.300;12.394;2022-08-05T03:32:47;8.93;;;3.70;;
25327;SDS011;13279;51.300;12.394;2022-08-05T03:37:42;15.67;;;3.80;;
25327;SDS011;13279;51.300;12.394;2022-08-05T03:40:10;8.33;;;3.10;;
25327;SDS011;13279;51.300;12.394;2022-08-05T03:42:38;9.10;;;4.40;;
25327;SDS011;13279;51.300;12.394;2022-08-05T03:45:06;7.60;;;3.67;;
25327;SDS011;13279;51.300;12.394;2022-08-05T03:47:35;7.70;;;3.67;;
25327;SDS011;13279;51.300;12.394;2022-08-05T03:50:04;8.33;;;3.23;;
25327;SDS011;13279;51.300;12.394;2022-08-05T03:52:33;6.97;;;3.37;;
25327;SDS011;13279;51.300;12.394;2022-08-05T03:55:07;11.07;;;3.33;;
25327;SDS011;13279;51.300;12.394;2022-08-05T03:57:39;10.27;;;4.10;;
25327;SDS011;13279;51.300;12.394;2022-08-05T04:00:09;14.60;;;3.30;;
25327;SDS011;13279;51.300;12.394;2022-08-05T04:02:41;7.60;;;3.93;;
25327;SDS011;13279;51.300;12.394;2022-08-05T04:05:13;6.77;;;3.20;;
25327;SDS011;13279;51.300;12.394;2022-08-05T04:07:42;8.93;;;3.43;;
25327;SDS011;13279;51.300;12.394;2022-08-05T04:10:10;9.43;;;3.47;;
25327;SDS011;13279;51.300;12.394;2022-08-05T04:12:38;6.33;;;3.43;;
25327;SDS011;13279;51.300;12.394;2022-08-05T04:15:06;6.80;;;3.30;;
25327;SDS011;13279;51.300;12.394;2022-08-05T04:17:34;12.87;;;4.00;;
25327;SDS011;13279;51.300;12.394;2022-08-05T04:20:02;4.80;;;3.13;;
25327;SDS011;13279;51.300;12.394;2022-08-05T04:22:32;6.53;;;3.23;;
25327;SDS011;13279;51.300;12.394;2022-08-05T04:24:59;6.63;;;3.37;;
25327;SDS011;13279;51.300;12.394;2022-08-05T04:27:27;9.60;;;3.47;;
25327;SDS011;13279;51.300;12.394;2022-08-05T04:29:56;8.00;;;3.33;;
25327;SDS011;13279;51.300;12.394;2022-08-05T04:32:23;7.80;;;2.93;;
25327;SDS011;13279;51.300;12.394;2022-08-05T04:34:51;6.33;;;3.40;;
25327;SDS011;13279;51.300;12.394;2022-08-05T04:37:18;6.83;;;3.10;;
25327;SDS011;13279;51.300;12.394;2022-08-05T04:39:47;5.27;;;3.50;;
25327;SDS011;13279;51.300;12.394;2022-08-05T04:42:15;6.90;;;3.10;;
25327;SDS011;13279;51.300;12.394;2022-08-05T04:44:43;9.40;;;3.40;;
25327;SDS011;13279;51.300;12.394;2022-08-05T04:47:10;6.00;;;3.20;;
25327;SDS011;13279;51.300;12.394;2022-08-05T04:49:37;10.83;;;3.17;;
25327;SDS011;13279;51.300;12.394;2022-08-05T04:52:23;11.73;;;4.27;;
25327;SDS011;13279;51.300;12.394;2022-08-05T04:54:53;10.97;;;3.40;;
25327;SDS011;13279;51.300;12.394;2022-08-05T04:57:20;5.50;;;3.33;;
25327;SDS011;13279;51.300;12.394;2022-08-05T04:59:48;11.03;;;3.70;;
25327;SDS011;13279;51.300;12.394;2022-08-05T05:02:15;10.03;;;3.50;;
25327;SDS011;13279;51.300;12.394;2022-08-05T05:04:43;10.00;;;3.50;;
25327;SDS011;13279;51.300;12.394;2022-08-05T05:07:11;19.53;;;3.53;;
25327;SDS011;13279;51.300;12.394;2022-08-05T05:09:38;11.10;;;3.20;;
25327;SDS011;13279;51.300;12.394;2022-08-05T05:12:07;5.97;;;3.47;;
25327;SDS011;13279;51.300;12.394;2022-08-05T05:14:35;7.30;;;3.20;;
25327;SDS011;13279;51.300;12.394;2022-08-05T05:17:02;7.50;;;2.90;;
25327;SDS011;13279;51.300;12.394;2022-08-05T05:19:30;6.43;;;2.83;;
25327;SDS011;13279;51.300;12.394;2022-08-05T05:21:57;4.93;;;3.00;;
25327;SDS011;13279;51.300;12.394;2022-08-05T05:24:25;6.37;;;3.10;;
25327;SDS011;13279;51.300;12.394;2022-08-05T05:26:52;8.80;;;3.13;;
25327;SDS011;13279;51.300;12.394;2022-08-05T05:29:21;5.93;;;3.03;;
25327;SDS011;13279;51.300;12.394;2022-08-05T05:31:49;8.70;;;3.77;;
25327;SDS011;13279;51.300;12.394;2022-08-05T05:34:16;6.70;;;3.30;;
25327;SDS011;13279;51.300;12.394;2022-08-05T05:36:44;7.43;;;3.70;;
25327;SDS011;13279;51.300;12.394;2022-08-05T05:39:11;8.90;;;3.60;;
25327;SDS011;13279;51.300;12.394;2022-08-05T05:41:39;11.67;;;4.27;;
25327;SDS011;13279;51.300;12.394;2022-08-05T05:44:09;19.27;;;3.57;;
25327;SDS011;13279;51.300;12.394;2022-08-05T05:46:38;6.83;;;4.17;;
25327;SDS011;13279;51.300;12.394;2022-08-05T05:49:06;5.60;;;3.90;;
25327;SDS011;13279;51.300;12.394;2022-08-05T05:51:33;5.63;;;4.10;;
25327;SDS011;13279;51.300;12.394;2022-08-05T05:54:01;9.70;;;3.67;;
25327;SDS011;13279;51.300;12.394;2022-08-05T05:56:29;10.30;;;3.50;;
25327;SDS011;13279;51.300;12.394;2022-08-05T05:58:57;14.73;;;4.27;;
25327;SDS011;13279;51.300;12.394;2022-08-05T06:01:24;10.20;;;3.70;;
25327;SDS011;13279;51.300;12.394;2022-08-05T06:03:53;10.33;;;3.13;;
25327;SDS011;13279;51.300;12.394;2022-08-05T06:06:21;7.80;;;3.53;;
25327;SDS011;13279;51.300;12.394;2022-08-05T06:08:48;12.00;;;3.87;;
25327;SDS011;13279;51.300;12.394;2022-08-05T06:11:16;8.30;;;2.93;;
25327;SDS011;13279;51.300;12.394;2022-08-05T06:13:43;8.17;;;3.50;;
25327;SDS011;13279;51.300;12.394;2022-08-05T06:16:11;12.43;;;3.37;;
25327;SDS011;13279;51.300;12.394;2022-08-05T06:18:38;8.40;;;3.60;;
25327;SDS011;13279;51.300;12.394;2022-08-05T06:21:07;6.83;;;3.70;;
25327;SDS011;13279;51.300;12.394;2022-08-05T06:23:35;6.53;;;3.20;;
25327;SDS011;13279;51.300;12.394;2022-08-05T06:26:02;6.33;;;2.77;;
25327;SDS011;13279;51.300;12.394;2022-08-05T06:28:30;10.83;;;3.03;;
25327;SDS011;13279;51.300;12.394;2022-08-05T06:30:57;9.93;;;3.37;;
25327;SDS011;13279;51.300;12.394;2022-08-05T06:33:25;10.47;;;2.73;;
25327;SDS011;13279;51.300;12.394;2022-08-05T06:35:52;5.93;;;3.20;;
25327;SDS011;13279;51.300;12.394;2022-08-05T06:38:21;6.73;;;3.83;;
25327;SDS011;13279;51.300;12.394;2022-08-05T06:40:48;6.17;;;3.33;;
25327;SDS011;13279;51.300;12.394;2022-08-05T06:43:16;6.27;;;3.03;;
25327;SDS011;13279;51.300;12.394;2022-08-05T06:45:43;9.00;;;2.90;;
25327;SDS011;13279;51.300;12.394;2022-08-05T06:48:11;10.50;;;3.53;;
25327;SDS011;13279;51.300;12.394;2022-08-05T06:50:38;10.03;;;3.23;;
25327;SDS011;13279;51.300;12.394;2022-08-05T06:53:06;11.40;;;3.70;;
25327;SDS011;13279;51.300;12.394;2022-08-05T06:55:34;9.80;;;3.60;;
25327;SDS011;13279;51.300;12.394;2022-08-05T06:58:02;9.60;;;4.17;;
25327;SDS011;13279;51.300;12.394;2022-08-05T07:00:30;8.77;;;3.83;;
25327;SDS011;13279;51.300;12.394;2022-08-05T07:02:58;11.03;;;3.63;;
25327;SDS011;13279;51.300;12.394;2022-08-05T07:05:25;9.13;;;3.43;;
25327;SDS011;13279;51.300;12.394;2022-08-05T07:07:53;9.17;;;3.43;;
25327;SDS011;13279;51.300;12.394;2022-08-05T07:10:20;10.70;;;3.37;;
25327;SDS011;13279;51.300;12.394;2022-08-05T07:12:51;10.43;;;3.27;;
25327;SDS011;13279;51.300;12.394;2022-08-05T07:15:36;6.97;;;3.10;;
25327;SDS011;13279;51.300;12.394;2022-08-05T07:18:21;11.13;;;3.50;;
25327;SDS011;13279;51.300;12.394;2022-08-05T07:20:50;6.80;;;3.20;;
25327;SDS011;13279;51.300;12.394;2022-08-05T07:23:17;5.43;;;3.73;;
25327;SDS011;13279;51.300;12.394;2022-08-05T07:25:45;8.97;;;3.50;;
25327;SDS011;13279;51.300;12.394;2022-08-05T07:28:14;10.17;;;3.13;;
25327;SDS011;13279;51.300;12.394;2022-08-05T07:30:41;10.50;;;3.13;;
25327;SDS011;13279;51.300;12.394;2022-08-05T07:33:10;4.87;;;2.83;;
25327;SDS011;13279;51.300;12.394;2022-08-05T07:35:38;6.83;;;3.37;;
25327;SDS011;13279;51.300;12.394;2022-08-05T07:38:05;7.67;;;3.10;;
25327;SDS011;13279;51.300;12.394;2022-08-05T07:40:33;10.50;;;3.70;;
25327;SDS011;13279;51.300;12.394;2022-08-05T07:43:00;13.50;;;3.33;;
25327;SDS011;13279;51.300;12.394;2022-08-05T07:45:29;8.83;;;2.80;;
25327;SDS011;13279;51.300;12.394;2022-08-05T07:47:57;7.27;;;3.03;;
25327;SDS011;13279;51.300;12.394;2022-08-05T07:50:24;7.73;;;3.33;;
25327;SDS011;13279;51.300;12.394;2022-08-05T07:52:52;9.17;;;3.33;;
25327;SDS011;13279;51.300;12.394;2022-08-05T07:55:20;10.03;;;2.90;;
25327;SDS011;13279;51.300;12.394;2022-08-05T07:57:47;9.83;;;3.13;;
25327;SDS011;13279;51.300;12.394;2022-08-05T08:00:15;4.27;;;3.03;;
25327;SDS011;13279;51.300;12.394;2022-08-05T08:02:44;9.43;;;3.30;;
25327;SDS011;13279;51.300;12.394;2022-08-05T08:05:12;8.23;;;3.23;;
25327;SDS011;13279;51.300;12.394;2022-08-05T08:07:39;6.37;;;3.50;;
25327;SDS011;13279;51.300;12.394;2022-08-05T08:10:07;8.47;;;3.73;;
25327;SDS011;13279;51.300;12.394;2022-08-05T08:12:34;5.83;;;3.10;;
25327;SDS011;13279;51.300;12.394;2022-08-05T08:15:02;8.23;;;3.17;;
25327;SDS011;13279;51.300;12.394;2022-08-05T08:17:30;3.90;;;3.00;;
25327;SDS011;13279;51.300;12.394;2022-08-05T08:20:00;5.80;;;3.60;;
25327;SDS011;13279;51.300;12.394;2022-08-05T08:22:29;8.70;;;3.10;;
25327;SDS011;13279;51.300;12.394;2022-08-05T08:24:57;8.63;;;3.00;;
25327;SDS011;13279;51.300;12.394;2022-08-05T08:27:24;6.50;;;3.07;;
25327;SDS011;13279;51.300;12.394;2022-08-05T08:29:52;6.70;;;2.87;;
25327;SDS011;13279;51.300;12.394;2022-08-05T08:32:19;17.00;;;2.87;;
25327;SDS011;13279;51.300;12.394;2022-08-05T08:34:47;6.70;;;2.63;;
25327;SDS011;13279;51.300;12.394;2022-08-05T08:37:16;6.27;;;3.23;;
25327;SDS011;13279;51.300;12.394;2022-08-05T08:39:43;10.57;;;3.40;;
25327;SDS011;13279;51.300;12.394;2022-08-05T08:42:11;6.67;;;3.07;;
25327;SDS011;13279;51.300;12.394;2022-08-05T08:44:40;4.40;;;3.20;;
25327;SDS011;13279;51.300;12.394;2022-08-05T08:47:09;5.77;;;3.33;;
25327;SDS011;13279;51.300;12.394;2022-08-05T08:49:38;7.50;;;3.00;;
25327;SDS011;13279;51.300;12.394;2022-08-05T08:52:12;7.87;;;3.33;;
25327;SDS011;13279;51.300;12.394;2022-08-05T08:54:44;6.73;;;3.27;;
25327;SDS011;13279;51.300;12.394;2022-08-05T08:57:12;10.60;;;2.90;;
25327;SDS011;13279;51.300;12.394;2022-08-05T08:59:40;6.03;;;3.30;;
25327;SDS011;13279;51.300;12.394;2022-08-05T09:02:08;9.83;;;3.70;;
25327;SDS011;13279;51.300;12.394;2022-08-05T09:04:36;6.83;;;2.57;;
25327;SDS011;13279;51.300;12.394;2022-08-05T09:07:04;10.57;;;2.70;;
25327;SDS011;13279;51.300;12.394;2022-08-05T09:09:32;4.60;;;2.13;;
25327;SDS011;13279;51.300;12.394;2022-08-05T09:12:02;11.87;;;3.77;;
25327;SDS011;13279;51.300;12.394;2022-08-05T09:14:31;5.30;;;2.20;;
25327;SDS011;13279;51.300;12.394;2022-08-05T09:16:59;5.70;;;2.63;;
25327;SDS011;13279;51.300;12.394;2022-08-05T09:19:27;5.90;;;2.70;;
25327;SDS011;13279;51.300;12.394;2022-08-05T09:21:54;5.83;;;2.43;;
25327;SDS011;13279;51.300;12.394;2022-08-05T09:24:22;7.88;;;2.63;;
25327;SDS011;13279;51.300;12.394;2022-08-05T09:26:50;4.65;;;2.63;;
25327;SDS011;13279;51.300;12.394;2022-08-05T09:29:22;10.48;;;3.10;;
25327;SDS011;13279;51.300;12.394;2022-08-05T09:32:04;10.52;;;2.80;;
25327;SDS011;13279;51.300;12.394;2022-08-05T09:34:45;5.75;;;3.15;;
25327;SDS011;13279;51.300;12.394;2022-08-05T09:37:16;6.20;;;2.72;;
25327;SDS011;13279;51.300;12.394;2022-08-05T09:39:45;3.97;;;2.77;;
25327;SDS011;13279;51.300;12.394;2022-08-05T09:42:13;5.17;;;2.40;;
25327;SDS011;13279;51.300;12.394;2022-08-05T09:44:43;7.47;;;2.90;;
25327;SDS011;13279;51.300;12.394;2022-08-05T09:47:12;6.47;;;2.37;;
25327;SDS011;13279;51.300;12.394;2022-08-05T09:49:52;5.90;;;2.83;;
25327;SDS011;13279;51.300;12.394;2022-08-05T09:52:22;10.43;;;3.10;;
25327;SDS011;13279;51.300;12.394;2022-08-05T09:54:51;5.83;;;2.73;;
25327;SDS011;13279;51.300;12.394;2022-08-05T09:58:17;6.73;;;2.47;;
25327;SDS011;13279;51.300;12.394;2022-08-05T10:00:58;5.43;;;2.53;;
25327;SDS011;13279;51.300;12.394;2022-08-05T10:04:14;4.93;;;2.80;;
25327;SDS011;13279;51.300;12.394;2022-08-05T10:10:58;9.10;;;2.60;;
25327;SDS011;13279;51.300;12.394;2022-08-05T10:17:18;3.08;;;2.45;;
25327;SDS011;13279;51.300;12.394;2022-08-05T10:20:32;7.60;;;2.13;;
25327;SDS011;13279;51.300;12.394;2022-08-05T10:23:52;5.32;;;2.15;;
25327;SDS011;13279;51.300;12.394;2022-08-05T10:26:23;5.00;;;2.40;;
25327;SDS011;13279;51.300;12.394;2022-08-05T10:28:50;2.35;;;2.13;;
25327;SDS011;13279;51.300;12.394;2022-08-05T10:31:17;4.22;;;2.30;;
25327;SDS011;13279;51.300;12.394;2022-08-05T10:33:47;7.78;;;2.28;;
25327;SDS011;13279;51.300;12.394;2022-08-05T10:36:16;2.80;;;2.45;;
25327;SDS011;13279;51.300;12.394;2022-08-05T10:38:43;7.43;;;2.42;;
25327;SDS011;13279;51.300;12.394;2022-08-05T10:41:25;2.60;;;2.40;;
25327;SDS011;13279;51.300;12.394;2022-08-05T10:43:58;5.07;;;2.58;;
25327;SDS011;13279;51.300;12.394;2022-08-05T10:46:42;5.82;;;2.35;;
25327;SDS011;13279;51.300;12.394;2022-08-05T10:49:12;7.35;;;2.55;;
25327;SDS011;13279;51.300;12.394;2022-08-05T10:51:41;4.88;;;2.72;;
25327;SDS011;13279;51.300;12.394;2022-08-05T10:54:09;8.13;;;2.63;;
25327;SDS011;13279;51.300;12.394;2022-08-05T10:56:42;13.70;;;3.00;;
25327;SDS011;13279;51.300;12.394;2022-08-05T10:59:14;5.68;;;2.17;;
25327;SDS011;13279;51.300;12.394;2022-08-05T11:01:44;8.95;;;3.13;;
25327;SDS011;13279;51.300;12.394;2022-08-05T11:04:13;6.07;;;2.97;;
25327;SDS011;13279;51.300;12.394;2022-08-05T11:09:36;9.25;;;3.00;;
25327;SDS011;13279;51.300;12.394;2022-08-05T11:12:40;6.68;;;2.13;;
25327;SDS011;13279;51.300;12.394;2022-08-05T11:15:19;6.38;;;2.30;;
25327;SDS011;13279;51.300;12.394;2022-08-05T11:17:48;5.82;;;2.75;;
25327;SDS011;13279;51.300;12.394;2022-08-05T11:20:34;5.40;;;2.95;;
25327;SDS011;13279;51.300;12.394;2022-08-05T11:23:30;23.05;;;3.75;;
25327;SDS011;13279;51.300;12.394;2022-08-05T11:26:03;8.85;;;2.70;;
25327;SDS011;13279;51.300;12.394;2022-08-05T11:28:45;9.90;;;2.88;;
25327;SDS011;13279;51.300;12.394;2022-08-05T11:31:20;4.68;;;2.60;;
25327;SDS011;13279;51.300;12.394;2022-08-05T11:34:00;9.00;;;2.50;;
25327;SDS011;13279;51.300;12.394;2022-08-05T11:36:41;9.90;;;2.78;;
25327;SDS011;13279;51.300;12.394;2022-08-05T11:39:16;4.47;;;2.50;;
25327;SDS011;13279;51.300;12.394;2022-08-05T11:42:13;8.30;;;2.88;;
25327;SDS011;13279;51.300;12.394;2022-08-05T11:44:42;4.32;;;2.83;;
25327;SDS011;13279;51.300;12.394;2022-08-05T11:47:11;9.38;;;2.92;;
25327;SDS011;13279;51.300;12.394;2022-08-05T11:49:53;9.50;;;2.20;;
25327;SDS011;13279;51.300;12.394;2022-08-05T11:52:24;8.13;;;2.28;;
25327;SDS011;13279;51.300;12.394;2022-08-05T11:54:53;10.55;;;2.50;;
25327;SDS011;13279;51.300;12.394;2022-08-05T11:57:21;2.40;;;2.20;;
25327;SDS011;13279;51.300;12.394;2022-08-05T11:59:54;6.50;;;2.17;;
25327;SDS011;13279;51.300;12.394;2022-08-05T12:02:26;4.82;;;2.40;;
25327;SDS011;13279;51.300;12.394;2022-08-05T12:04:57;4.03;;;2.35;;
25327;SDS011;13279;51.300;12.394;2022-08-05T12:07:32;6.47;;;1.90;;
25327;SDS011;13279;51.300;12.394;2022-08-05T12:10:04;5.18;;;2.20;;
25327;SDS011;13279;51.300;12.394;2022-08-05T12:12:33;5.30;;;2.28;;
25327;SDS011;13279;51.300;12.394;2022-08-05T12:15:01;7.97;;;2.03;;
25327;SDS011;13279;51.300;12.394;2022-08-05T12:17:29;3.95;;;2.25;;
25327;SDS011;13279;51.300;12.394;2022-08-05T12:20:02;4.32;;;2.03;;
25327;SDS011;13279;51.300;12.394;2022-08-05T12:22:34;6.53;;;2.25;;
25327;SDS011;13279;51.300;12.394;2022-08-05T12:25:02;3.83;;;2.00;;
25327;SDS011;13279;51.300;12.394;2022-08-05T12:27:30;3.10;;;2.35;;
25327;SDS011;13279;51.300;12.394;2022-08-05T12:29:59;6.50;;;2.60;;
25327;SDS011;13279;51.300;12.394;2022-08-05T12:32:30;3.75;;;2.53;;
25327;SDS011;13279;51.300;12.394;2022-08-05T12:34:58;6.78;;;2.78;;
25327;SDS011;13279;51.300;12.394;2022-08-05T12:37:25;2.65;;;2.45;;
25327;SDS011;13279;51.300;12.394;2022-08-05T12:39:56;7.57;;;2.15;;
25327;SDS011;13279;51.300;12.394;2022-08-05T12:42:27;5.32;;;2.53;;
25327;SDS011;13279;51.300;12.394;2022-08-05T12:45:00;6.47;;;2.38;;
25327;SDS011;13279;51.300;12.394;2022-08-05T12:47:28;3.75;;;2.05;;
25327;SDS011;13279;51.300;12.394;2022-08-05T12:49:57;5.22;;;2.45;;
25327;SDS011;13279;51.300;12.394;2022-08-05T12:52:25;5.93;;;2.33;;
25327;SDS011;13279;51.300;12.394;2022-08-05T12:54:53;4.72;;;2.30;;
25327;SDS011;13279;51.300;12.394;2022-08-05T12:57:22;3.08;;;2.25;;
25327;SDS011;13279;51.300;12.394;2022-08-05T12:59:50;6.18;;;2.63;;
25327;SDS011;13279;51.300;12.394;2022-08-05T13:02:19;7.07;;;2.20;;
25327;SDS011;13279;51.300;12.394;2022-08-05T13:04:47;5.43;;;2.33;;
25327;SDS011;13279;51.300;12.394;2022-08-05T13:07:17;6.68;;;2.60;;
25327;SDS011;13279;51.300;12.394;2022-08-05T13:09:49;3.10;;;2.28;;
25327;SDS011;13279;51.300;12.394;2022-08-05T13:12:18;11.30;;;2.78;;
25327;SDS011;13279;51.300;12.394;2022-08-05T13:14:49;2.97;;;2.67;;
25327;SDS011;13279;51.300;12.394;2022-08-05T13:17:18;7.35;;;2.80;;
25327;SDS011;13279;51.300;12.394;2022-08-05T13:19:56;3.35;;;2.22;;
25327;SDS011;13279;51.300;12.394;2022-08-05T13:22:26;3.92;;;2.60;;
25327;SDS011;13279;51.300;12.394;2022-08-05T13:24:54;3.92;;;2.33;;
25327;SDS011;13279;51.300;12.394;2022-08-05T13:27:24;3.95;;;2.40;;
25327;SDS011;13279;51.300;12.394;2022-08-05T13:29:54;7.63;;;2.90;;
25327;SDS011;13279;51.300;12.394;2022-08-05T13:32:23;4.78;;;2.90;;
25327;SDS011;13279;51.300;12.394;2022-08-05T13:34:51;7.93;;;2.88;;
25327;SDS011;13279;51.300;12.394;2022-08-05T13:37:19;6.78;;;2.90;;
25327;SDS011;13279;51.300;12.394;2022-08-05T13:39:48;4.75;;;2.58;;
25327;SDS011;13279;51.300;12.394;2022-08-05T13:42:15;4.25;;;2.92;;
25327;SDS011;13279;51.300;12.394;2022-08-05T13:44:43;5.30;;;2.90;;
25327;SDS011;13279;51.300;12.394;2022-08-05T13:47:13;5.63;;;2.70;;
25327;SDS011;13279;51.300;12.394;2022-08-05T13:49:40;4.35;;;2.58;;
25327;SDS011;13279;51.300;12.394;2022-08-05T13:52:09;4.63;;;2.47;;
25327;SDS011;13279;51.300;12.394;2022-08-05T13:54:37;4.18;;;2.20;;
25327;SDS011;13279;51.300;12.394;2022-08-05T13:57:05;1.92;;;1.83;;
25327;SDS011;13279;51.300;12.394;2022-08-05T13:59:34;4.55;;;2.00;;
25327;SDS011;13279;51.300;12.394;2022-08-05T14:02:02;3.33;;;1.50;;
25327;SDS011;13279;51.300;12.394;2022-08-05T14:04:34;2.55;;;1.67;;
25327;SDS011;13279;51.300;12.394;2022-08-05T14:07:21;5.32;;;2.33;;
25327;SDS011;13279;51.300;12.394;2022-08-05T14:09:50;5.18;;;1.98;;
25327;SDS011;13279;51.300;12.394;2022-08-05T14:12:17;1.88;;;1.77;;
25327;SDS011;13279;51.300;12.394;2022-08-05T14:14:45;2.88;;;1.80;;
25327;SDS011;13279;51.300;12.394;2022-08-05T14:17:13;2.92;;;1.77;;
25327;SDS011;13279;51.300;12.394;2022-08-05T14:19:42;3.15;;;1.70;;
25327;SDS011;13279;51.300;12.394;2022-08-05T14:22:10;3.00;;;1.73;;
25327;SDS011;13279;51.300;12.394;2022-08-05T14:24:38;3.03;;;1.60;;
25327;SDS011;13279;51.300;12.394;2022-08-05T14:27:05;1.88;;;1.70;;
25327;SDS011;13279;51.300;12.394;2022-08-05T14:29:33;3.60;;;1.73;;
25327;SDS011;13279;51.300;12.394;2022-08-05T14:32:01;1.98;;;1.38;;
25327;SDS011;13279;51.300;12.394;2022-08-05T14:34:28;1.65;;;1.55;;
25327;SDS011;13279;51.300;12.394;2022-08-05T14:36:57;2.70;;;1.58;;
25327;SDS011;13279;51.300;12.394;2022-08-05T14:39:26;5.25;;;1.77;;
25327;SDS011;13279;51.300;12.394;2022-08-05T14:41:53;2.05;;;1.50;;
25327;SDS011;13279;51.300;12.394;2022-08-05T14:44:21;2.42;;;1.42;;
25327;SDS011;13279;51.300;12.394;2022-08-05T14:46:49;7.40;;;1.75;;
25327;SDS011;13279;51.300;12.394;2022-08-05T14:49:16;1.95;;;1.40;;
25327;SDS011;13279;51.300;12.394;2022-08-05T14:51:44;3.92;;;1.80;;
25327;SDS011;13279;51.300;12.394;2022-08-05T14:54:13;2.13;;;1.80;;
25327;SDS011;13279;51.300;12.394;2022-08-05T14:56:41;2.13;;;1.77;;
25327;SDS011;13279;51.300;12.394;2022-08-05T14:59:08;4.32;;;1.45;;
25327;SDS011;13279;51.300;12.394;2022-08-05T15:01:37;4.85;;;1.88;;
25327;SDS011;13279;51.300;12.394;2022-08-05T15:04:08;5.95;;;1.83;;
25327;SDS011;13279;51.300;12.394;2022-08-05T15:06:36;4.25;;;1.90;;
25327;SDS011;13279;51.300;12.394;2022-08-05T15:09:04;3.38;;;1.85;;
25327;SDS011;13279;51.300;12.394;2022-08-05T15:11:33;6.28;;;1.75;;
25327;SDS011;13279;51.300;12.394;2022-08-05T15:14:01;5.93;;;1.80;;
25327;SDS011;13279;51.300;12.394;2022-08-05T15:16:29;4.72;;;1.67;;
25327;SDS011;13279;51.300;12.394;2022-08-05T15:18:57;1.92;;;1.80;;
25327;SDS011;13279;51.300;12.394;2022-08-05T15:21:24;5.07;;;2.03;;
25327;SDS011;13279;51.300;12.394;2022-08-05T15:23:53;3.75;;;1.75;;
25327;SDS011;13279;51.300;12.394;2022-08-05T15:26:20;4.20;;;1.90;;
25327;SDS011;13279;51.300;12.394;2022-08-05T15:28:49;1.63;;;1.52;;
25327;SDS011;13279;51.300;12.394;2022-08-05T15:31:17;9.88;;;3.05;;
25327;SDS011;13279;51.300;12.394;2022-08-05T15:33:44;3.97;;;3.47;;
25327;SDS011;13279;51.300;12.394;2022-08-05T15:36:12;15.07;;;8.60;;
25327;SDS011;13279;51.300;12.394;2022-08-05T15:38:39;18.02;;;8.50;;
25327;SDS011;13279;51.300;12.394;2022-08-05T15:41:07;16.75;;;9.52;;
25327;SDS011;13279;51.300;12.394;2022-08-05T15:43:34;19.10;;;8.25;;
25327;SDS011;13279;51.300;12.394;2022-08-05T15:46:03;15.75;;;8.90;;
25327;SDS011;13279;51.300;12.394;2022-08-05T15:48:34;16.40;;;8.23;;
25327;SDS011;13279;51.300;12.394;2022-08-05T15:51:01;15.18;;;8.25;;
25327;SDS011;13279;51.300;12.394;2022-08-05T15:53:29;9.95;;;7.82;;
25327;SDS011;13279;51.300;12.394;2022-08-05T15:55:57;12.00;;;6.75;;
25327;SDS011;13279;51.300;12.394;2022-08-05T15:58:24;11.25;;;7.53;;
25327;SDS011;13279;51.300;12.394;2022-08-05T16:00:53;12.10;;;7.50;;
25327;SDS011;13279;51.300;12.394;2022-08-05T16:03:22;20.35;;;8.77;;
25327;SDS011;13279;51.300;12.394;2022-08-05T16:05:51;10.63;;;8.63;;
25327;SDS011;13279;51.300;12.394;2022-08-05T16:08:19;15.53;;;9.00;;
25327;SDS011;13279;51.300;12.394;2022-08-05T16:10:46;12.77;;;9.00;;
25327;SDS011;13279;51.300;12.394;2022-08-05T16:13:14;14.13;;;8.07;;
25327;SDS011;13279;51.300;12.394;2022-08-05T16:15:41;13.30;;;8.67;;
25327;SDS011;13279;51.300;12.394;2022-08-05T16:18:09;12.60;;;8.97;;
25327;SDS011;13279;51.300;12.394;2022-08-05T16:20:37;10.00;;;7.87;;
25327;SDS011;13279;51.300;12.394;2022-08-05T16:23:05;10.63;;;7.47;;
25327;SDS011;13279;51.300;12.394;2022-08-05T16:25:33;11.17;;;5.80;;
25327;SDS011;13279;51.300;12.394;2022-08-05T16:28:01;10.30;;;5.13;;
25327;SDS011;13279;51.300;12.394;2022-08-05T16:30:29;13.00;;;6.10;;
25327;SDS011;13279;51.300;12.394;2022-08-05T16:32:57;7.07;;;5.60;;
25327;SDS011;13279;51.300;12.394;2022-08-05T16:35:25;12.30;;;6.53;;
25327;SDS011;13279;51.300;12.394;2022-08-05T16:37:55;13.23;;;7.17;;
25327;SDS011;13279;51.300;12.394;2022-08-05T16:40:22;12.63;;;7.50;;
25327;SDS011;13279;51.300;12.394;2022-08-05T16:42:50;14.67;;;7.37;;
25327;SDS011;13279;51.300;12.394;2022-08-05T16:45:17;12.63;;;7.20;;
25327;SDS011;13279;51.300;12.394;2022-08-05T16:47:45;17.77;;;7.33;;
25327;SDS011;13279;51.300;12.394;2022-08-05T16:50:12;15.00;;;6.80;;
25327;SDS011;13279;51.300;12.394;2022-08-05T16:52:40;10.40;;;4.87;;
25327;SDS011;13279;51.300;12.394;2022-08-05T16:55:09;10.43;;;5.27;;
25327;SDS011;13279;51.300;12.394;2022-08-05T16:57:36;10.17;;;4.10;;
25327;SDS011;13279;51.300;12.394;2022-08-05T17:00:05;13.23;;;4.43;;
25327;SDS011;13279;51.300;12.394;2022-08-05T17:02:34;11.17;;;4.20;;
25327;SDS011;13279;51.300;12.394;2022-08-05T17:05:02;8.40;;;3.63;;
25327;SDS011;13279;51.300;12.394;2022-08-05T17:07:31;9.83;;;4.07;;
25327;SDS011;13279;51.300;12.394;2022-08-05T17:09:58;8.60;;;4.13;;
25327;SDS011;13279;51.300;12.394;2022-08-05T17:12:27;6.97;;;4.03;;
25327;SDS011;13279;51.300;12.394;2022-08-05T17:14:55;5.90;;;3.67;;
25327;SDS011;13279;51.300;12.394;2022-08-05T17:17:22;9.43;;;4.30;;
25327;SDS011;13279;51.300;12.394;2022-08-05T17:19:57;8.20;;;3.40;;
25327;SDS011;13279;51.300;12.394;2022-08-05T17:22:25;5.10;;;3.40;;
25327;SDS011;13279;51.300;12.394;2022-08-05T17:24:53;8.97;;;3.37;;
25327;SDS011;13279;51.300;12.394;2022-08-05T17:27:21;5.50;;;3.33;;
25327;SDS011;13279;51.300;12.394;2022-08-05T17:29:50;4.57;;;2.57;;
25327;SDS011;13279;51.300;12.394;2022-08-05T17:32:17;8.27;;;2.50;;
25327;SDS011;13279;51.300;12.394;2022-08-05T17:34:45;4.23;;;2.97;;
25327;SDS011;13279;51.300;12.394;2022-08-05T17:37:13;6.67;;;2.17;;
25327;SDS011;13279;51.300;12.394;2022-08-05T17:39:40;6.30;;;2.00;;
25327;SDS011;13279;51.300;12.394;2022-08-05T17:42:08;4.80;;;1.80;;
25327;SDS011;13279;51.300;12.394;2022-08-05T17:44:36;3.30;;;1.90;;
25327;SDS011;13279;51.300;12.394;2022-08-05T17:47:05;4.47;;;2.30;;
25327;SDS011;13279;51.300;12.394;2022-08-05T17:49:33;2.30;;;1.87;;
25327;SDS011;13279;51.300;12.394;2022-08-05T17:52:00;6.20;;;1.97;;
25327;SDS011;13279;51.300;12.394;2022-08-05T17:54:27;5.30;;;1.67;;
25327;SDS011;13279;51.300;12.394;2022-08-05T17:56:56;3.37;;;1.60;;
25327;SDS011;13279;51.300;12.394;2022-08-05T17:59:24;3.27;;;2.77;;
25327;SDS011;13279;51.300;12.394;2022-08-05T18:01:52;5.33;;;1.87;;
25327;SDS011;13279;51.300;12.394;2022-08-05T18:04:21;6.83;;;1.50;;
25327;SDS011;13279;51.300;12.394;2022-08-05T18:06:48;2.93;;;1.60;;
25327;SDS011;13279;51.300;12.394;2022-08-05T18:09:16;6.83;;;2.20;;
25327;SDS011;13279;51.300;12.394;2022-08-05T18:11:44;7.07;;;1.77;;
25327;SDS011;13279;51.300;12.394;2022-08-05T18:14:11;3.53;;;2.23;;